Time;durP1;ratioP1;P1;durP2;ratioP2;P2;SDS_P1;SDS_P2;PMS_P1;PMS_P2;Temp;Humidity;BMP_temperature;BMP_pressure;BME280_temperature;BME280_humidity;BME280_pressure;Samples;Min_cycle;Max_cycle;Signal;HPM_P1;HPM_P2
2024/04/14 00:00:22;;;;;;;8.63;3.10;;;;;;;;;;11056127;26;20005;-76
2024/04/14 00:05:26;;;;;;;4.00;2.25;;;;;;;;;;11060733;26;20102;-76
2024/04/14 00:10:34;;;;;;;4.03;2.20;;;;;;;;;;11060468;26;20446;-75
2024/04/14 00:15:39;;;;;;;6.72;2.70;;;;;;;;;;11055640;26;20005;-75
2024/04/14 00:20:44;;;;;;;5.85;2.70;;;;;;;;;;11061998;26;20023;-77
2024/04/14 00:25:52;;;;;;;3.20;1.50;;;;;;;;;;11051332;26;20181;-77
2024/04/14 00:30:58;;;;;;;5.43;1.80;;;;;;;;;;11061111;26;20065;-76
2024/04/14 00:36:03;;;;;;;6.28;2.90;;;;;;;;;;11058951;26;20012;-76
2024/04/14 00:41:10;;;;;;;6.00;2.97;;;;;;;;;;11055961;26;20139;-75
2024/04/14 00:46:17;;;;;;;6.10;2.47;;;;;;;;;;11062529;26;20015;-78
2024/04/14 00:51:22;;;;;;;5.82;2.75;;;;;;;;;;11071768;26;20520;-77
2024/04/14 00:56:29;;;;;;;4.03;2.35;;;;;;;;;;11051782;26;20005;-76
2024/04/14 01:01:36;;;;;;;6.25;2.95;;;;;;;;;;11058796;26;20005;-76
2024/04/14 01:06:41;;;;;;;3.38;1.42;;;;;;;;;;11052444;26;20001;-76
2024/04/14 01:11:48;;;;;;;3.47;2.00;;;;;;;;;;11058846;26;20024;-77
2024/04/14 01:16:53;;;;;;;3.88;1.67;;;;;;;;;;11061909;26;20111;-77
2024/04/14 01:21:57;;;;;;;5.03;2.15;;;;;;;;;;11060255;26;20012;-76
2024/04/14 01:27:05;;;;;;;3.45;1.55;;;;;;;;;;11069265;26;20012;-77
2024/04/14 01:32:13;;;;;;;6.90;2.33;;;;;;;;;;11067715;26;20459;-77
2024/04/14 01:37:18;;;;;;;4.70;2.55;;;;;;;;;;11057294;26;20024;-76
2024/04/14 01:42:25;;;;;;;6.13;2.33;;;;;;;;;;11068127;26;20013;-75
2024/04/14 01:47:31;;;;;;;4.07;2.15;;;;;;;;;;11057855;26;20021;-76
2024/04/14 01:52:35;;;;;;;6.53;2.60;;;;;;;;;;11062645;26;20005;-75
2024/04/14 01:57:42;;;;;;;2.88;1.30;;;;;;;;;;11051093;26;20019;-77
2024/04/14 02:02:48;;;;;;;2.95;1.58;;;;;;;;;;11077152;26;20199;-76
2024/04/14 02:07:53;;;;;;;3.40;2.13;;;;;;;;;;11063710;26;20933;-76
2024/04/14 02:13:00;;;;;;;3.35;2.08;;;;;;;;;;11077976;26;20027;-76
2024/04/14 02:18:05;;;;;;;3.95;2.00;;;;;;;;;;11035253;26;20000;-76
2024/04/14 02:23:10;;;;;;;3.20;1.95;;;;;;;;;;11075266;26;20044;-76
2024/04/14 02:28:17;;;;;;;6.50;1.95;;;;;;;;;;11043719;26;19997;-76
2024/04/14 02:33:21;;;;;;;5.53;1.90;;;;;;;;;;11068730;26;20004;-75
2024/04/14 02:38:27;;;;;;;3.95;1.77;;;;;;;;;;11058982;26;20005;-76
2024/04/14 02:43:36;;;;;;;4.20;1.45;;;;;;;;;;11071818;26;20004;-77
2024/04/14 02:48:40;;;;;;;5.00;1.80;;;;;;;;;;11076289;26;20199;-76
2024/04/14 02:53:45;;;;;;;4.22;1.65;;;;;;;;;;11065335;26;20004;-76
2024/04/14 02:58:52;;;;;;;6.32;2.05;;;;;;;;;;11061773;26;20032;-76
2024/04/14 03:03:57;;;;;;;2.55;1.55;;;;;;;;;;11073192;26;20008;-76
2024/04/14 03:09:02;;;;;;;1.42;0.65;;;;;;;;;;11071665;26;20014;-76
2024/04/14 03:14:09;;;;;;;2.95;1.65;;;;;;;;;;11058267;26;20560;-75
2024/04/14 03:19:14;;;;;;;1.60;1.00;;;;;;;;;;11058846;26;20015;-75
2024/04/14 03:24:19;;;;;;;2.30;1.45;;;;;;;;;;11053144;26;20005;-77
2024/04/14 03:29:26;;;;;;;4.10;1.45;;;;;;;;;;11053209;26;20004;-78
2024/04/14 03:34:30;;;;;;;2.28;1.30;;;;;;;;;;11062897;26;20453;-78
2024/04/14 03:39:35;;;;;;;2.45;1.30;;;;;;;;;;11041948;26;20024;-77
2024/04/14 03:44:42;;;;;;;2.88;1.40;;;;;;;;;;11041178;26;20016;-77
2024/04/14 03:49:47;;;;;;;4.05;1.38;;;;;;;;;;11033777;26;20302;-77
2024/04/14 03:54:52;;;;;;;2.28;1.00;;;;;;;;;;11004616;26;20000;-78
2024/04/14 03:59:59;;;;;;;1.35;1.05;;;;;;;;;;11043785;26;20012;-77
2024/04/14 04:05:04;;;;;;;2.08;1.13;;;;;;;;;;11049319;26;20414;-76
2024/04/14 04:10:08;;;;;;;5.20;1.20;;;;;;;;;;11037705;26;20016;-76
2024/04/14 04:15:19;;;;;;;2.33;1.23;;;;;;;;;;11038389;26;20020;-75
2024/04/14 04:20:24;;;;;;;2.97;1.30;;;;;;;;;;10984687;26;20102;-76
2024/04/14 04:25:28;;;;;;;2.65;1.17;;;;;;;;;;11049336;26;20005;-76
2024/04/14 04:30:40;;;;;;;1.63;1.20;;;;;;;;;;11056948;26;20331;-75
2024/04/14 04:35:53;;;;;;;2.58;1.13;;;;;;;;;;11039535;26;20086;-75
2024/04/14 04:40:57;;;;;;;2.13;1.30;;;;;;;;;;11052306;26;20011;-77
2024/04/14 04:46:04;;;;;;;1.05;0.98;;;;;;;;;;11038691;26;20009;-76
2024/04/14 04:51:09;;;;;;;3.08;1.40;;;;;;;;;;11060884;26;20005;-77
2024/04/14 04:56:13;;;;;;;2.40;1.20;;;;;;;;;;11053980;26;20086;-75
2024/04/14 05:01:20;;;;;;;1.63;0.95;;;;;;;;;;11053117;26;20009;-76
2024/04/14 05:06:26;;;;;;;2.47;1.40;;;;;;;;;;11058890;26;20309;-77
2024/04/14 05:11:50;;;;;;;6.95;1.30;;;;;;;;;;11062386;26;20012;-75
2024/04/14 05:17:11;;;;;;;1.95;1.00;;;;;;;;;;11096319;26;20495;-74
2024/04/14 05:22:20;;;;;;;1.00;0.68;;;;;;;;;;11093975;26;20000;-75
2024/04/14 05:27:29;;;;;;;2.97;1.33;;;;;;;;;;11092196;26;20011;-75
2024/04/14 05:33:01;;;;;;;2.97;1.20;;;;;;;;;;11023695;26;20013;-76
2024/04/14 05:38:05;;;;;;;3.55;1.08;;;;;;;;;;11021688;26;20484;-75
2024/04/14 05:43:10;;;;;;;1.80;1.13;;;;;;;;;;11029519;26;20008;-76
2024/04/14 05:48:17;;;;;;;3.35;1.20;;;;;;;;;;11010401;26;20027;-76
2024/04/14 05:53:22;;;;;;;0.65;0.65;;;;;;;;;;10990910;26;20020;-76
2024/04/14 05:58:26;;;;;;;3.47;1.52;;;;;;;;;;11040323;26;20067;-76
2024/04/14 06:03:33;;;;;;;2.85;1.50;;;;;;;;;;11040474;26;20016;-75
2024/04/14 06:08:38;;;;;;;2.67;1.25;;;;;;;;;;11035953;26;20076;-76
2024/04/14 06:13:42;;;;;;;3.60;1.00;;;;;;;;;;11046915;26;20048;-76
2024/04/14 06:18:50;;;;;;;2.20;1.20;;;;;;;;;;11020465;26;20001;-75
2024/04/14 06:23:55;;;;;;;1.15;0.65;;;;;;;;;;11037684;26;20017;-76
2024/04/14 06:29:00;;;;;;;2.75;1.33;;;;;;;;;;11029303;26;20023;-76
2024/04/14 06:34:07;;;;;;;3.90;1.10;;;;;;;;;;11041657;26;20005;-76
2024/04/14 06:39:12;;;;;;;3.00;1.10;;;;;;;;;;11033369;26;20020;-74
2024/04/14 06:44:17;;;;;;;1.80;0.98;;;;;;;;;;10996672;26;20535;-74
2024/04/14 06:49:23;;;;;;;1.77;1.20;;;;;;;;;;11034249;26;20001;-75
2024/04/14 06:54:29;;;;;;;3.17;1.45;;;;;;;;;;11034824;26;20005;-74
2024/04/14 06:59:34;;;;;;;2.50;1.10;;;;;;;;;;11040403;26;19997;-76
2024/04/14 07:04:47;;;;;;;3.60;2.08;;;;;;;;;;11030005;26;20104;-75
2024/04/14 07:09:53;;;;;;;1.50;1.40;;;;;;;;;;11037773;26;20009;-76
2024/04/14 07:15:00;;;;;;;2.05;1.60;;;;;;;;;;11040440;26;20001;-76
2024/04/14 07:20:11;;;;;;;2.83;1.35;;;;;;;;;;11020577;26;20437;-77
2024/04/14 07:25:16;;;;;;;3.58;1.75;;;;;;;;;;11044649;26;20212;-76
2024/04/14 07:30:24;;;;;;;3.72;1.65;;;;;;;;;;11013080;26;20040;-76
2024/04/14 07:35:34;;;;;;;2.85;1.60;;;;;;;;;;11007682;26;20005;-77
2024/04/14 07:40:39;;;;;;;2.72;1.70;;;;;;;;;;10970578;26;19998;-77
2024/04/14 07:45:44;;;;;;;5.43;1.80;;;;;;;;;;10998477;26;20071;-77
2024/04/14 07:50:53;;;;;;;2.40;1.50;;;;;;;;;;11030453;26;20124;-76
2024/04/14 07:55:58;;;;;;;4.00;1.77;;;;;;;;;;11018070;26;20132;-77
2024/04/14 08:01:04;;;;;;;3.42;1.98;;;;;;;;;;11027316;26;20446;-77
2024/04/14 08:06:12;;;;;;;2.67;1.75;;;;;;;;;;11029589;26;20477;-77
2024/04/14 08:11:17;;;;;;;2.58;1.50;;;;;;;;;;11034226;26;20019;-77
2024/04/14 08:16:23;;;;;;;4.88;1.67;;;;;;;;;;11031066;26;20012;-78
2024/04/14 08:21:30;;;;;;;2.70;1.60;;;;;;;;;;11034323;26;20005;-76
2024/04/14 08:26:39;;;;;;;3.35;1.70;;;;;;;;;;11029285;26;20019;-76
2024/04/14 08:31:43;;;;;;;2.88;1.60;;;;;;;;;;11027782;26;20079;-77
2024/04/14 08:36:51;;;;;;;3.13;1.75;;;;;;;;;;11029929;26;20028;-77
2024/04/14 08:41:58;;;;;;;2.65;1.92;;;;;;;;;;11024577;26;20164;-77
2024/04/14 08:47:03;;;;;;;1.88;1.70;;;;;;;;;;11034696;26;20077;-77
2024/04/14 08:52:13;;;;;;;3.53;1.70;;;;;;;;;;11035044;26;20016;-77
2024/04/14 08:57:18;;;;;;;1.73;1.55;;;;;;;;;;11026766;26;20009;-77
2024/04/14 09:02:27;;;;;;;1.90;1.70;;;;;;;;;;10998607;26;20442;-78
2024/04/14 09:07:34;;;;;;;2.60;1.77;;;;;;;;;;11027832;26;20008;-77
2024/04/14 09:12:40;;;;;;;4.13;2.10;;;;;;;;;;11025661;26;20047;-77
2024/04/14 09:17:45;;;;;;;5.43;2.10;;;;;;;;;;11022950;26;20455;-78
2024/04/14 09:22:52;;;;;;;3.28;1.88;;;;;;;;;;11025887;26;20402;-77
2024/04/14 09:28:03;;;;;;;2.05;1.85;;;;;;;;;;11022057;26;20709;-77
2024/04/14 09:33:08;;;;;;;2.83;2.00;;;;;;;;;;11023701;26;20495;-77
2024/04/14 09:38:24;;;;;;;2.72;1.75;;;;;;;;;;10998704;26;20012;-77
2024/04/14 09:43:29;;;;;;;3.58;2.20;;;;;;;;;;11019377;26;20007;-77
2024/04/14 09:48:35;;;;;;;3.28;2.00;;;;;;;;;;11028482;26;19996;-78
2024/04/14 09:53:43;;;;;;;4.00;2.10;;;;;;;;;;11037682;26;20508;-77
2024/04/14 09:58:48;;;;;;;2.30;2.10;;;;;;;;;;11028916;26;20430;-77
2024/04/14 10:03:55;;;;;;;2.70;2.30;;;;;;;;;;11024791;26;20000;-77
2024/04/14 10:09:03;;;;;;;2.92;2.10;;;;;;;;;;11034584;26;20008;-83
2024/04/14 10:14:10;;;;;;;5.57;3.15;;;;;;;;;;11034438;26;20001;-77
2024/04/14 10:19:20;;;;;;;3.47;2.20;;;;;;;;;;11043891;26;20008;-78
2024/04/14 10:24:32;;;;;;;3.35;2.33;;;;;;;;;;11027529;26;20032;-77
2024/04/14 10:29:36;;;;;;;2.65;2.00;;;;;;;;;;11035272;26;20508;-78
2024/04/14 10:34:41;;;;;;;2.70;2.00;;;;;;;;;;11037472;26;20096;-78
2024/04/14 10:39:49;;;;;;;2.85;2.08;;;;;;;;;;11037883;26;20022;-78
2024/04/14 10:44:56;;;;;;;6.60;2.00;;;;;;;;;;11034057;26;20000;-79
2024/04/14 10:50:01;;;;;;;1.80;1.70;;;;;;;;;;11030487;26;20084;-79
2024/04/14 10:55:09;;;;;;;2.45;1.63;;;;;;;;;;11001471;26;20005;-78
2024/04/14 11:00:16;;;;;;;3.13;1.80;;;;;;;;;;11000522;26;20067;-78
2024/04/14 11:05:22;;;;;;;5.30;1.90;;;;;;;;;;11012486;26;20016;-79
2024/04/14 11:10:33;;;;;;;3.33;1.77;;;;;;;;;;11039691;26;20001;-79
2024/04/14 11:15:39;;;;;;;2.60;1.98;;;;;;;;;;11045554;26;20665;-78
2024/04/14 11:20:49;;;;;;;3.15;1.88;;;;;;;;;;11039348;26;20020;-79
2024/04/14 11:25:56;;;;;;;2.13;1.80;;;;;;;;;;11024846;26;20017;-78
2024/04/14 11:31:03;;;;;;;2.03;1.83;;;;;;;;;;11036523;26;20578;-77
2024/04/14 11:36:12;;;;;;;3.17;1.88;;;;;;;;;;11039965;26;20025;-78
2024/04/14 11:41:36;;;;;;;2.40;1.98;;;;;;;;;;11041599;26;20690;-78
2024/04/14 11:46:43;;;;;;;3.90;1.92;;;;;;;;;;11037623;26;20032;-79
2024/04/14 11:51:54;;;;;;;5.03;2.13;;;;;;;;;;11031596;26;20004;-77
2024/04/14 11:56:59;;;;;;;3.22;2.00;;;;;;;;;;11036340;26;20094;-79
2024/04/14 12:02:09;;;;;;;4.78;2.30;;;;;;;;;;10987818;26;20004;-78
2024/04/14 12:07:14;;;;;;;2.17;1.92;;;;;;;;;;11032875;26;20005;-79
2024/04/14 12:12:18;;;;;;;4.47;1.95;;;;;;;;;;11002516;26;20004;-78
2024/04/14 12:17:29;;;;;;;2.08;1.80;;;;;;;;;;11033907;26;20012;-78
2024/04/14 12:22:34;;;;;;;2.38;1.80;;;;;;;;;;11019121;26;20500;-78
2024/04/14 12:27:42;;;;;;;3.15;2.00;;;;;;;;;;11034619;26;20001;-77
2024/04/14 12:32:53;;;;;;;4.25;2.00;;;;;;;;;;11006489;26;20006;-78
2024/04/14 12:37:59;;;;;;;2.72;1.70;;;;;;;;;;11033663;26;20093;-78
2024/04/14 12:43:03;;;;;;;2.95;1.92;;;;;;;;;;11024474;26;20024;-77
2024/04/14 12:48:17;;;;;;;5.35;1.90;;;;;;;;;;11012531;26;20013;-78
2024/04/14 12:53:30;;;;;;;3.30;1.70;;;;;;;;;;11035518;26;20549;-78
2024/04/14 12:58:35;;;;;;;2.03;1.50;;;;;;;;;;11041640;26;20083;-78
2024/04/14 13:03:47;;;;;;;4.20;1.90;;;;;;;;;;11030692;26;20008;-78
2024/04/14 13:08:54;;;;;;;2.08;1.80;;;;;;;;;;11010515;26;20049;-77
2024/04/14 13:14:00;;;;;;;2.92;1.90;;;;;;;;;;10996978;26;20413;-78
2024/04/14 13:19:14;;;;;;;3.55;2.00;;;;;;;;;;10996979;26;20069;-79
2024/04/14 13:24:20;;;;;;;3.40;1.60;;;;;;;;;;11032271;26;20005;-78
2024/04/14 13:29:25;;;;;;;3.15;1.90;;;;;;;;;;11033930;26;20139;-77
2024/04/14 13:34:36;;;;;;;4.30;1.85;;;;;;;;;;11026814;26;20024;-76
2024/04/14 13:39:41;;;;;;;3.20;1.83;;;;;;;;;;11021021;26;20464;-78
2024/04/14 13:44:45;;;;;;;1.77;1.67;;;;;;;;;;11028269;26;20016;-78
2024/04/14 13:49:52;;;;;;;2.38;1.65;;;;;;;;;;11032334;26;20017;-78
2024/04/14 13:55:00;;;;;;;2.67;1.70;;;;;;;;;;11027862;26;20512;-78
2024/04/14 14:00:05;;;;;;;3.30;1.85;;;;;;;;;;11029339;26;20013;-78
2024/04/14 14:05:12;;;;;;;2.78;2.00;;;;;;;;;;11031464;26;20019;-82
2024/04/14 14:10:17;;;;;;;3.55;1.70;;;;;;;;;;11031516;26;20322;-78
2024/04/14 14:15:22;;;;;;;3.00;1.80;;;;;;;;;;11029304;26;20013;-77
2024/04/14 14:20:29;;;;;;;2.30;1.70;;;;;;;;;;11038535;26;20005;-77
2024/04/14 14:25:33;;;;;;;3.30;1.70;;;;;;;;;;11035281;26;20004;-77
2024/04/14 14:30:37;;;;;;;3.30;1.90;;;;;;;;;;11025770;26;20133;-77
2024/04/14 14:41:06;;;;;;;3.08;1.42;;;;;;;;;;11040329;26;20012;-77
2024/04/14 14:46:11;;;;;;;2.38;1.70;;;;;;;;;;11008432;26;20028;-77
2024/04/14 14:51:18;;;;;;;3.70;2.30;;;;;;;;;;11032492;26;20778;-77
2024/04/14 14:56:23;;;;;;;2.35;1.75;;;;;;;;;;11032224;26;20475;-77
2024/04/14 15:01:27;;;;;;;2.95;1.63;;;;;;;;;;11037922;26;20017;-77
2024/04/14 15:06:35;;;;;;;2.75;1.80;;;;;;;;;;11039451;26;20049;-76
2024/04/14 15:11:40;;;;;;;3.65;2.03;;;;;;;;;;11020951;26;20345;-76
2024/04/14 15:16:45;;;;;;;4.88;1.65;;;;;;;;;;11034504;26;20009;-76
2024/04/14 15:21:52;;;;;;;2.95;1.75;;;;;;;;;;11041044;26;20700;-76
2024/04/14 15:26:57;;;;;;;3.28;1.85;;;;;;;;;;11046577;26;20060;-76
2024/04/14 15:32:01;;;;;;;4.50;2.10;;;;;;;;;;11038487;26;20037;-76
2024/04/14 15:37:10;;;;;;;6.93;1.98;;;;;;;;;;11026254;26;20036;-77
2024/04/14 15:42:15;;;;;;;3.00;1.90;;;;;;;;;;11045468;26;20469;-76
2024/04/14 15:47:20;;;;;;;3.67;1.90;;;;;;;;;;11025471;26;20013;-77
2024/04/14 15:52:27;;;;;;;3.70;1.95;;;;;;;;;;10998302;26;20026;-76
2024/04/14 15:57:32;;;;;;;2.30;1.83;;;;;;;;;;11035400;26;20024;-78
2024/04/14 16:02:41;;;;;;;2.10;1.55;;;;;;;;;;10991631;26;20347;-76
2024/04/14 16:07:48;;;;;;;4.45;2.75;;;;;;;;;;11030778;26;20010;-76
2024/04/14 16:12:53;;;;;;;5.10;3.28;;;;;;;;;;11032999;26;20448;-76
2024/04/14 16:17:57;;;;;;;3.35;1.85;;;;;;;;;;11044981;26;20020;-77
2024/04/14 16:23:07;;;;;;;2.70;1.73;;;;;;;;;;11032374;26;20161;-76
2024/04/14 16:28:12;;;;;;;4.93;2.00;;;;;;;;;;11039056;26;20359;-76
2024/04/14 16:33:16;;;;;;;2.97;1.77;;;;;;;;;;11033144;26;20502;-76
2024/04/14 16:38:25;;;;;;;4.85;2.05;;;;;;;;;;11041689;26;20016;-77
2024/04/14 16:43:29;;;;;;;3.95;2.15;;;;;;;;;;11033448;26;20005;-76
2024/04/14 16:48:33;;;;;;;3.78;2.28;;;;;;;;;;11038915;26;20000;-76
2024/04/14 16:53:41;;;;;;;3.72;2.10;;;;;;;;;;11030968;26;20012;-76
2024/04/14 16:58:46;;;;;;;3.35;2.00;;;;;;;;;;11026882;26;20012;-76
2024/04/14 17:03:51;;;;;;;4.80;2.65;;;;;;;;;;11029568;26;20324;-75
2024/04/14 17:08:58;;;;;;;6.95;3.42;;;;;;;;;;11027986;26;20019;-76
2024/04/14 17:14:02;;;;;;;4.78;2.20;;;;;;;;;;11036773;26;20033;-76
2024/04/14 17:19:07;;;;;;;13.48;4.30;;;;;;;;;;11026955;26;20005;-76
2024/04/14 17:24:15;;;;;;;11.35;4.88;;;;;;;;;;11035017;26;20023;-78
2024/04/14 17:29:20;;;;;;;8.35;3.00;;;;;;;;;;11024235;26;20015;-76
2024/04/14 17:34:24;;;;;;;6.47;2.50;;;;;;;;;;11028178;26;20018;-76
2024/04/14 17:39:31;;;;;;;6.90;2.60;;;;;;;;;;11033808;26;20025;-76
2024/04/14 17:44:36;;;;;;;7.57;3.00;;;;;;;;;;11024421;26;20035;-77
2024/04/14 17:49:41;;;;;;;8.35;3.00;;;;;;;;;;11026440;26;20012;-76
2024/04/14 17:54:49;;;;;;;4.80;2.63;;;;;;;;;;11025977;26;20135;-77
2024/04/14 17:59:53;;;;;;;9.07;3.90;;;;;;;;;;11023561;26;20005;-76
2024/04/14 18:05:00;;;;;;;12.30;5.65;;;;;;;;;;11035734;26;20012;-76
2024/04/14 18:10:07;;;;;;;9.48;3.55;;;;;;;;;;11022471;26;20039;-76
2024/04/14 18:15:12;;;;;;;6.22;2.90;;;;;;;;;;11029899;26;20016;-76
2024/04/14 18:20:17;;;;;;;7.75;2.72;;;;;;;;;;11025473;26;20001;-77
2024/04/14 18:25:24;;;;;;;8.77;3.17;;;;;;;;;;11046390;26;20016;-77
2024/04/14 18:30:29;;;;;;;5.97;3.17;;;;;;;;;;11026814;26;20011;-77
2024/04/14 18:35:33;;;;;;;4.90;3.03;;;;;;;;;;11026541;26;20013;-77
2024/04/14 18:40:41;;;;;;;6.43;3.10;;;;;;;;;;11037205;26;20075;-77
2024/04/14 18:45:57;;;;;;;5.70;3.17;;;;;;;;;;11032289;26;20013;-76
2024/04/14 18:51:03;;;;;;;5.78;3.10;;;;;;;;;;11033229;26;20345;-76
2024/04/14 18:56:11;;;;;;;6.50;2.97;;;;;;;;;;11035833;26;20005;-77
2024/04/14 19:01:18;;;;;;;7.03;3.28;;;;;;;;;;11029645;26;20008;-77
2024/04/14 19:06:23;;;;;;;7.88;4.15;;;;;;;;;;11051711;26;20073;-78
2024/04/14 19:11:32;;;;;;;6.07;3.20;;;;;;;;;;11040668;26;20008;-78
2024/04/14 19:16:36;;;;;;;5.05;2.88;;;;;;;;;;11040238;26;20016;-77
2024/04/14 19:21:41;;;;;;;7.63;3.20;;;;;;;;;;11027619;26;20649;-77
2024/04/14 19:26:48;;;;;;;7.32;3.38;;;;;;;;;;11033685;26;20008;-76
2024/04/14 19:31:53;;;;;;;10.30;5.53;;;;;;;;;;11005619;26;20017;-78
2024/04/14 19:36:58;;;;;;;9.02;3.75;;;;;;;;;;11003275;26;20004;-78
2024/04/14 19:42:07;;;;;;;8.38;3.13;;;;;;;;;;11036151;26;20009;-78
2024/04/14 19:47:15;;;;;;;5.28;3.10;;;;;;;;;;11030388;26;20450;-78
2024/04/14 19:52:20;;;;;;;5.72;3.10;;;;;;;;;;11019576;26;20243;-78
2024/04/14 19:57:29;;;;;;;9.52;4.15;;;;;;;;;;10997243;26;20082;-76
2024/04/14 20:02:36;;;;;;;8.48;3.10;;;;;;;;;;11032881;26;20084;-77
2024/04/14 20:07:41;;;;;;;7.05;3.53;;;;;;;;;;11039540;26;20016;-79
2024/04/14 20:12:49;;;;;;;5.22;3.25;;;;;;;;;;11046717;26;20013;-80
2024/04/14 20:17:56;;;;;;;19.73;7.25;;;;;;;;;;11047726;26;20010;-78
2024/04/14 20:23:02;;;;;;;9.98;3.17;;;;;;;;;;11031491;26;20651;-78
2024/04/14 20:28:10;;;;;;;7.13;3.20;;;;;;;;;;11030060;26;20001;-78
2024/04/14 20:33:18;;;;;;;9.10;3.83;;;;;;;;;;11040023;26;20298;-77
2024/04/14 20:38:24;;;;;;;6.22;3.03;;;;;;;;;;11030827;26;20020;-76
2024/04/14 20:43:34;;;;;;;14.95;6.10;;;;;;;;;;10997397;26;20021;-79
2024/04/14 20:48:41;;;;;;;6.60;3.53;;;;;;;;;;11026069;26;20087;-79
2024/04/14 20:53:47;;;;;;;6.72;3.53;;;;;;;;;;11036627;26;20020;-78
2024/04/14 20:58:53;;;;;;;10.77;3.90;;;;;;;;;;11023756;26;20449;-80
2024/04/14 21:04:04;;;;;;;11.30;3.58;;;;;;;;;;11012196;26;20429;-78
2024/04/14 21:09:10;;;;;;;11.55;5.32;;;;;;;;;;11044050;26;20009;-77
2024/04/14 21:14:19;;;;;;;7.18;3.58;;;;;;;;;;11041822;26;20016;-79
2024/04/14 21:19:24;;;;;;;8.40;3.47;;;;;;;;;;11032386;26;20005;-77
2024/04/14 21:24:28;;;;;;;12.27;4.47;;;;;;;;;;11032336;26;20021;-78
2024/04/14 21:29:36;;;;;;;7.05;3.38;;;;;;;;;;11036678;26;20518;-76
2024/04/14 21:34:41;;;;;;;7.63;3.60;;;;;;;;;;11033129;26;20015;-76
2024/04/14 21:39:46;;;;;;;10.25;4.20;;;;;;;;;;11033885;26;20399;-77
2024/04/14 21:44:54;;;;;;;7.82;3.85;;;;;;;;;;11038272;26;20107;-79
2024/04/14 21:50:01;;;;;;;6.82;3.75;;;;;;;;;;11031234;26;20021;-75
2024/04/14 21:55:06;;;;;;;10.82;4.40;;;;;;;;;;11034328;26;20005;-76
2024/04/14 22:00:15;;;;;;;10.52;4.00;;;;;;;;;;11003011;26;21436;-76
2024/04/14 22:05:19;;;;;;;10.02;4.45;;;;;;;;;;11030644;26;20086;-78
2024/04/14 22:10:24;;;;;;;9.05;4.25;;;;;;;;;;10999423;26;20013;-78
2024/04/14 22:15:31;;;;;;;10.18;4.45;;;;;;;;;;11038397;26;20005;-78
2024/04/14 22:20:35;;;;;;;7.55;4.35;;;;;;;;;;11038218;26;20025;-79
2024/04/14 22:25:40;;;;;;;8.32;4.32;;;;;;;;;;11037667;26;20019;-79
2024/04/14 22:30:48;;;;;;;7.88;4.13;;;;;;;;;;11042602;26;20032;-77
2024/04/14 22:35:52;;;;;;;12.57;4.68;;;;;;;;;;11044976;26;20005;-78
2024/04/14 22:40:57;;;;;;;8.30;4.13;;;;;;;;;;11009253;26;20019;-77
2024/04/14 22:46:04;;;;;;;11.93;4.05;;;;;;;;;;11038264;26;20057;-77
2024/04/14 22:51:09;;;;;;;8.77;4.40;;;;;;;;;;11003653;26;20088;-77
2024/04/14 22:56:14;;;;;;;8.80;4.43;;;;;;;;;;11036852;26;20013;-78
2024/04/14 23:01:21;;;;;;;9.23;4.32;;;;;;;;;;11036401;26;20104;-77
2024/04/14 23:06:27;;;;;;;12.43;4.22;;;;;;;;;;11038264;26;20472;-78
2024/04/14 23:11:32;;;;;;;6.88;3.63;;;;;;;;;;11036910;26;20031;-76
2024/04/14 23:16:39;;;;;;;7.68;3.97;;;;;;;;;;10997569;26;20016;-77
2024/04/14 23:21:43;;;;;;;9.95;4.00;;;;;;;;;;11040471;26;20457;-77
2024/04/14 23:26:48;;;;;;;7.40;3.60;;;;;;;;;;11038154;26;20284;-78
2024/04/14 23:31:55;;;;;;;6.95;3.95;;;;;;;;;;11039356;26;20016;-78
2024/04/14 23:37:00;;;;;;;9.18;4.10;;;;;;;;;;11010906;26;20013;-79
2024/04/14 23:42:05;;;;;;;8.93;3.70;;;;;;;;;;11031594;26;20573;-78
2024/04/14 23:47:12;;;;;;;7.80;4.00;;;;;;;;;;11038748;26;20434;-78
2024/04/14 23:52:17;;;;;;;9.82;4.00;;;;;;;;;;11033207;26;20004;-79
2024/04/14 23:57:22;;;;;;;8.00;4.03;;;;;;;;;;11030615;26;20019;-79
